createdAt,value
2023-04-18T00:00:49.396Z,9.18
2023-04-18T00:03:20.873Z,8.85
2023-04-18T00:05:49.921Z,10.20
2023-04-18T00:08:18.376Z,10.85
2023-04-18T00:10:46.876Z,11.80
2023-04-18T00:13:18.503Z,9.50
2023-04-18T00:15:47.289Z,10.63
2023-04-18T00:18:17.245Z,10.05
2023-04-18T00:20:47.160Z,12.90
2023-04-18T00:23:16.405Z,9.27
2023-04-18T00:25:44.828Z,10.85
2023-04-18T00:28:13.312Z,13.38
2023-04-18T00:30:41.794Z,9.85
2023-04-18T00:33:10.245Z,10.75
2023-04-18T00:35:39.175Z,17.00
2023-04-18T00:38:09.001Z,10.98
2023-04-18T00:40:37.871Z,11.90
2023-04-18T00:43:06.330Z,9.43
2023-04-18T00:45:34.755Z,11.05
2023-04-18T00:48:03.436Z,9.65
2023-04-18T00:50:32.359Z,11.35
2023-04-18T00:53:00.895Z,10.38
2023-04-18T00:55:30.787Z,11.07
2023-04-18T00:57:59.266Z,14.32
2023-04-18T01:00:27.745Z,11.07
2023-04-18T01:02:56.594Z,11.23
2023-04-18T01:05:25.377Z,9.43
2023-04-18T01:07:58.715Z,10.95
2023-04-18T01:10:27.301Z,11.45
2023-04-18T01:13:11.161Z,10.95
2023-04-18T01:15:43.580Z,10.05
2023-04-18T01:18:13.216Z,12.35
2023-04-18T01:20:42.611Z,9.00
2023-04-18T01:23:11.640Z,8.68
2023-04-18T01:25:41.517Z,9.88
2023-04-18T01:28:09.958Z,9.48
2023-04-18T01:30:38.864Z,11.15
2023-04-18T01:33:07.516Z,11.18
2023-04-18T01:35:36.022Z,11.65
2023-04-18T01:38:04.460Z,9.80
2023-04-18T01:40:32.956Z,9.82
2023-04-18T01:43:02.827Z,9.43
2023-04-18T01:45:31.261Z,10.52
2023-04-18T01:47:59.724Z,12.48
2023-04-18T01:50:28.229Z,8.77
2023-04-18T01:52:56.643Z,9.80
2023-04-18T01:55:25.071Z,9.95
2023-04-18T01:57:53.509Z,8.57
2023-04-18T02:00:23.653Z,10.00
2023-04-18T02:02:52.144Z,10.75
2023-04-18T02:05:20.827Z,9.10
2023-04-18T02:07:50.264Z,9.30
2023-04-18T02:10:18.778Z,10.15
2023-04-18T02:12:47.239Z,9.15
2023-04-18T02:15:15.639Z,8.27
2023-04-18T02:17:45.632Z,9.57
2023-04-18T02:20:15.745Z,8.50
2023-04-18T02:22:45.682Z,8.02
2023-04-18T02:25:14.113Z,9.95
2023-04-18T02:27:42.492Z,8.82
2023-04-18T02:30:11.463Z,11.80
2023-04-18T02:32:39.955Z,10.45
2023-04-18T02:35:10.258Z,9.55
2023-04-18T02:37:38.648Z,9.98
2023-04-18T02:40:07.651Z,9.18
2023-04-18T02:42:36.426Z,9.10
2023-04-18T02:45:04.846Z,7.97
2023-04-18T02:47:37.723Z,11.52
2023-04-18T02:50:13.765Z,9.70
2023-04-18T02:52:42.612Z,9.15
2023-04-18T02:55:11.252Z,7.95
2023-04-18T02:57:39.623Z,8.75
2023-04-18T03:00:09.402Z,7.90
2023-04-18T03:02:37.885Z,8.13
2023-04-18T03:05:06.969Z,9.00
2023-04-18T03:07:36.816Z,8.93
2023-04-18T03:10:05.428Z,8.50
2023-04-18T03:12:33.831Z,8.82
2023-04-18T03:15:02.244Z,11.30
2023-04-18T03:17:30.915Z,10.32
2023-04-18T03:19:59.477Z,8.38
2023-04-18T03:22:28.203Z,8.23
2023-04-18T03:25:00.043Z,8.55
2023-04-18T03:27:28.634Z,8.23
2023-04-18T03:29:57.057Z,7.43
2023-04-18T03:32:25.878Z,10.10
2023-04-18T03:34:54.337Z,7.57
2023-04-18T03:37:22.911Z,8.10
2023-04-18T03:39:51.326Z,9.30
2023-04-18T03:42:21.133Z,8.50
2023-04-18T03:44:49.571Z,9.05
2023-04-18T03:47:17.966Z,7.13
2023-04-18T03:49:46.370Z,8.45
2023-04-18T03:52:16.021Z,8.45
2023-04-18T03:54:44.458Z,9.10
2023-04-18T03:57:12.894Z,7.93
2023-04-18T03:59:43.030Z,7.38
2023-04-18T04:02:11.542Z,7.65
2023-04-18T04:04:40.032Z,8.43
2023-04-18T04:07:08.463Z,7.55
2023-04-18T04:09:36.892Z,7.65
2023-04-18T04:12:05.373Z,8.05
2023-04-18T04:14:33.842Z,8.20
2023-04-18T04:17:03.667Z,8.27
2023-04-18T04:19:32.120Z,9.48
2023-04-18T04:22:00.527Z,7.80
2023-04-18T04:24:29.551Z,7.45
2023-04-18T04:26:58.896Z,8.63
2023-04-18T04:29:29.069Z,8.00
2023-04-18T04:31:59.206Z,9.13
2023-04-18T04:34:29.112Z,8.40
2023-04-18T04:36:57.531Z,8.45
2023-04-18T04:39:26.080Z,9.68
2023-04-18T04:41:54.534Z,12.10
2023-04-18T04:44:25.923Z,10.98
2023-04-18T04:46:54.667Z,12.02
2023-04-18T04:49:23.649Z,12.05
2023-04-18T04:51:53.957Z,13.68
2023-04-18T04:54:22.499Z,9.35
2023-04-18T04:56:51.263Z,12.57
2023-04-18T04:59:19.810Z,13.27
2023-04-18T05:01:48.575Z,10.68
2023-04-18T05:04:18.500Z,11.23
2023-04-18T05:06:47.743Z,10.45
2023-04-18T05:09:18.174Z,11.65
2023-04-18T05:11:46.865Z,10.80
2023-04-18T05:14:16.011Z,12.45
2023-04-18T05:16:44.650Z,12.52
2023-04-18T05:19:13.254Z,12.77
2023-04-18T05:21:41.812Z,11.63
2023-04-18T05:24:10.303Z,12.00
2023-04-18T05:26:40.300Z,11.32
2023-04-18T05:29:08.754Z,11.15
2023-04-18T05:31:37.241Z,15.95
2023-04-18T05:34:06.037Z,12.70
2023-04-18T05:36:34.501Z,12.55
2023-04-18T05:39:02.977Z,14.10
2023-04-18T05:41:31.602Z,12.73
2023-04-18T05:44:05.463Z,10.90
2023-04-18T05:46:34.465Z,13.65
2023-04-18T05:49:03.617Z,13.35
2023-04-18T05:51:32.127Z,14.30
2023-04-18T05:54:00.586Z,12.20
2023-04-18T05:56:29.111Z,11.95
2023-04-18T05:58:57.578Z,11.80
2023-04-18T06:01:27.542Z,12.82
2023-04-18T06:03:56.187Z,12.30
2023-04-18T06:06:24.717Z,12.75
2023-04-18T06:08:53.164Z,13.38
2023-04-18T06:11:21.756Z,12.13
2023-04-18T06:13:50.190Z,11.82
2023-04-18T06:16:18.694Z,12.10
2023-04-18T06:18:48.596Z,13.18
2023-04-18T06:21:17.070Z,14.10
2023-04-18T06:23:45.519Z,15.00
2023-04-18T06:26:14.061Z,14.90
2023-04-18T06:31:18.594Z,12.55
2023-04-18T06:33:47.081Z,12.32
2023-04-18T06:36:15.492Z,12.85
2023-04-18T06:38:43.950Z,11.68
2023-04-18T06:41:12.442Z,11.57
2023-04-18T06:43:49.099Z,13.75
2023-04-18T06:46:29.544Z,11.55
2023-04-18T06:48:58.135Z,13.85
2023-04-18T06:51:27.276Z,13.75
2023-04-18T06:53:55.726Z,13.90
2023-04-18T06:56:24.201Z,12.55
2023-04-18T06:58:53.611Z,11.32
2023-04-18T07:01:22.069Z,12.07
2023-04-18T07:03:52.030Z,15.18
2023-04-18T07:06:20.570Z,11.68
2023-04-18T07:08:49.061Z,11.73
2023-04-18T07:11:18.561Z,11.05
2023-04-18T07:13:48.765Z,13.48
2023-04-18T07:16:17.182Z,11.65
2023-04-18T07:18:45.678Z,13.98
2023-04-18T07:21:15.730Z,13.75
2023-04-18T07:23:44.312Z,13.15
2023-04-18T07:26:13.659Z,12.40
2023-04-18T07:28:42.181Z,14.18
2023-04-18T07:31:11.686Z,13.45
2023-04-18T07:33:40.321Z,14.02
2023-04-18T07:36:09.188Z,15.93
2023-04-18T07:38:39.013Z,13.35
2023-04-18T07:41:07.415Z,15.30
2023-04-18T07:43:36.009Z,15.45
2023-04-18T07:46:04.523Z,16.10
2023-04-18T07:48:33.045Z,13.38
2023-04-18T07:51:01.552Z,12.13
2023-04-18T07:53:30.328Z,12.70
2023-04-18T07:56:00.304Z,11.88
2023-04-18T07:58:29.195Z,11.93
2023-04-18T08:00:57.697Z,11.85
2023-04-18T08:03:27.769Z,12.52
2023-04-18T08:05:56.768Z,12.93
2023-04-18T08:08:25.340Z,14.20
2023-04-18T08:10:53.936Z,15.07
2023-04-18T08:13:23.929Z,13.95
2023-04-18T08:15:52.834Z,14.05
2023-04-18T08:18:22.942Z,13.40
2023-04-18T08:20:51.385Z,13.10
2023-04-18T08:23:20.315Z,12.98
2023-04-18T08:25:48.973Z,14.63
2023-04-18T08:28:17.413Z,13.95
2023-04-18T08:30:49.134Z,15.48
2023-04-18T08:33:17.591Z,17.90
2023-04-18T08:35:46.166Z,15.23
2023-04-18T08:38:14.933Z,15.88
2023-04-18T08:40:45.094Z,17.05
2023-04-18T08:43:15.173Z,19.38
2023-04-18T08:45:44.271Z,18.25
2023-04-18T08:48:15.340Z,15.38
2023-04-18T08:50:43.916Z,13.98
2023-04-18T08:53:12.770Z,14.68
2023-04-18T08:55:42.040Z,14.35
2023-04-18T09:00:52.990Z,17.02
2023-04-18T09:03:39.159Z,15.77
2023-04-18T09:06:09.465Z,14.18
2023-04-18T09:08:38.251Z,15.35
2023-04-18T09:11:26.142Z,13.82
2023-04-18T09:13:56.389Z,15.88
2023-04-18T09:16:27.786Z,15.23
2023-04-18T09:19:13.127Z,17.63
2023-04-18T09:21:42.761Z,16.55
2023-04-18T09:24:23.992Z,16.70
2023-04-18T09:26:54.098Z,16.58
2023-04-18T09:29:23.575Z,15.68
2023-04-18T09:32:03.865Z,20.95
2023-04-18T09:34:34.042Z,15.82
2023-04-18T09:37:09.522Z,16.13
2023-04-18T09:39:39.143Z,15.60
2023-04-18T09:42:08.039Z,15.88
2023-04-18T09:44:36.660Z,15.75
2023-04-18T09:47:08.030Z,14.30
2023-04-18T09:49:36.713Z,16.40
2023-04-18T09:52:07.567Z,16.45
2023-04-18T09:54:38.622Z,15.50
2023-04-18T09:57:09.403Z,15.27
2023-04-18T09:59:42.034Z,16.80
2023-04-18T10:02:16.669Z,15.48
2023-04-18T10:04:45.623Z,16.67
2023-04-18T10:07:15.002Z,15.40
2023-04-18T10:09:44.643Z,17.60
2023-04-18T10:12:13.706Z,15.57
2023-04-18T10:14:44.424Z,16.02
2023-04-18T10:17:16.093Z,16.00
2023-04-18T10:19:46.359Z,13.95
2023-04-18T10:22:14.914Z,16.10
2023-04-18T10:24:54.179Z,14.65
2023-04-18T10:27:37.531Z,15.55
2023-04-18T10:30:08.022Z,16.60
2023-04-18T10:32:38.938Z,15.18
2023-04-18T10:35:08.328Z,18.50
2023-04-18T10:37:36.819Z,13.07
2023-04-18T10:40:07.074Z,15.57
2023-04-18T10:42:54.043Z,15.35
2023-04-18T10:45:23.206Z,14.30
2023-04-18T10:47:53.210Z,14.75
2023-04-18T10:50:21.799Z,14.52
2023-04-18T10:52:50.422Z,15.25
2023-04-18T10:55:20.332Z,14.77
2023-04-18T10:57:50.467Z,15.45
2023-04-18T11:00:21.547Z,15.85
2023-04-18T11:02:51.286Z,15.90
2023-04-18T11:05:25.570Z,15.35
2023-04-18T11:07:54.228Z,16.75
2023-04-18T11:10:23.797Z,16.13
2023-04-18T11:12:52.421Z,15.48
2023-04-18T11:15:22.536Z,17.42
2023-04-18T11:17:58.067Z,16.90
2023-04-18T11:20:28.115Z,13.20
2023-04-18T11:22:57.369Z,14.73
2023-04-18T11:25:27.168Z,14.02
2023-04-18T11:27:56.245Z,14.32
2023-04-18T11:30:24.791Z,16.35
2023-04-18T11:32:54.165Z,14.02
2023-04-18T11:35:22.872Z,14.18
2023-04-18T11:37:52.726Z,13.30
2023-04-18T11:40:21.230Z,15.60
2023-04-18T11:42:49.787Z,15.02
2023-04-18T11:45:18.671Z,17.15
2023-04-18T11:47:48.183Z,14.02
2023-04-18T11:50:16.856Z,13.77
2023-04-18T11:52:52.048Z,14.40
2023-04-18T11:55:23.003Z,14.60
2023-04-18T11:57:52.621Z,18.35
2023-04-18T12:00:22.529Z,15.23
2023-04-18T12:02:52.329Z,13.25
2023-04-18T12:05:28.197Z,14.15
2023-04-18T12:07:56.912Z,14.48
2023-04-18T12:10:28.525Z,14.75
2023-04-18T12:12:58.575Z,14.77
2023-04-18T12:15:28.360Z,15.77
2023-04-18T12:18:00.469Z,15.60
2023-04-18T12:20:34.857Z,15.07
2023-04-18T12:23:03.523Z,17.02
2023-04-18T12:25:34.915Z,15.70
2023-04-18T12:28:04.701Z,14.18
2023-04-18T12:30:35.953Z,14.45
2023-04-18T12:33:06.714Z,15.95
2023-04-18T12:35:35.216Z,14.50
2023-04-18T12:38:04.512Z,14.88
2023-04-18T12:40:34.348Z,16.73
2023-04-18T12:43:03.927Z,14.13
2023-04-18T12:45:33.655Z,15.35
2023-04-18T12:48:02.155Z,19.92
2023-04-18T12:50:30.833Z,17.10
2023-04-18T12:53:00.351Z,14.85
2023-04-18T12:55:30.205Z,13.70
2023-04-18T12:58:00.053Z,13.35
2023-04-18T13:00:30.376Z,17.52
2023-04-18T13:02:59.496Z,14.98
2023-04-18T13:05:30.897Z,13.93
2023-04-18T13:10:33.393Z,14.13
2023-04-18T13:13:03.264Z,14.32
2023-04-18T13:15:31.821Z,14.88
2023-04-18T13:18:04.674Z,15.60
2023-04-18T13:20:33.555Z,14.98
2023-04-18T13:23:02.194Z,16.42
2023-04-18T13:25:30.754Z,15.18
2023-04-18T13:28:00.841Z,16.08
2023-04-18T13:30:31.783Z,18.27
2023-04-18T13:33:00.386Z,18.58
2023-04-18T13:35:28.924Z,17.80
2023-04-18T13:37:57.361Z,15.55
2023-04-18T13:40:29.093Z,19.40
2023-04-18T13:42:57.554Z,16.65
2023-04-18T13:45:26.061Z,16.52
2023-04-18T13:47:56.078Z,17.25
2023-04-18T13:50:24.813Z,15.60
2023-04-18T13:52:54.672Z,14.15
2023-04-18T13:55:23.316Z,16.23
2023-04-18T13:57:52.139Z,15.40
2023-04-18T14:00:21.071Z,15.80
2023-04-18T14:02:49.693Z,15.48
2023-04-18T14:05:19.798Z,15.07
2023-04-18T14:07:48.877Z,14.38
2023-04-18T14:10:17.355Z,14.98
2023-04-18T14:12:45.849Z,14.60
2023-04-18T14:15:14.285Z,16.23
2023-04-18T14:17:45.279Z,13.82
2023-04-18T14:20:15.684Z,13.00
2023-04-18T14:22:45.567Z,13.93
2023-04-18T14:25:14.341Z,14.23
2023-04-18T14:27:42.757Z,15.38
2023-04-18T14:30:13.012Z,17.13
2023-04-18T14:32:41.525Z,14.00
2023-04-18T14:35:10.604Z,19.15
2023-04-18T14:37:39.030Z,13.45
2023-04-18T14:40:11.227Z,12.55
2023-04-18T14:42:39.865Z,14.20
2023-04-18T14:45:11.242Z,12.38
2023-04-18T14:47:40.133Z,16.05
2023-04-18T14:50:09.775Z,13.13
2023-04-18T14:52:38.201Z,12.13
2023-04-18T14:55:07.016Z,13.02
2023-04-18T14:57:37.785Z,14.70
2023-04-18T15:00:07.536Z,15.35
2023-04-18T15:02:36.237Z,15.00
2023-04-18T15:05:07.481Z,15.32
2023-04-18T15:07:37.916Z,15.57
2023-04-18T15:10:12.539Z,15.70
2023-04-18T15:12:42.734Z,13.73
2023-04-18T15:15:11.628Z,15.13
2023-04-18T15:17:42.668Z,15.02
2023-04-18T15:20:11.253Z,14.63
2023-04-18T15:22:39.757Z,13.88
2023-04-18T15:25:08.770Z,13.55
2023-04-18T15:27:37.376Z,13.85
2023-04-18T15:30:08.336Z,13.98
2023-04-18T15:32:36.921Z,15.07
2023-04-18T15:35:06.627Z,14.65
2023-04-18T15:37:35.046Z,14.75
2023-04-18T15:40:06.114Z,13.95
2023-04-18T15:42:34.582Z,15.23
2023-04-18T15:45:03.162Z,12.93
2023-04-18T15:47:34.743Z,14.38
2023-04-18T15:50:03.955Z,13.15
2023-04-18T15:52:32.375Z,13.95
2023-04-18T15:55:01.092Z,13.60
2023-04-18T15:57:30.488Z,12.10
2023-04-18T15:59:59.781Z,13.45
2023-04-18T16:02:28.643Z,12.57
2023-04-18T16:04:58.637Z,13.00
2023-04-18T16:07:27.103Z,13.30
2023-04-18T16:09:55.700Z,13.93
2023-04-18T16:12:24.274Z,12.32
2023-04-18T16:14:52.743Z,13.30
2023-04-18T16:17:21.266Z,12.30
2023-04-18T16:19:49.807Z,12.43
2023-04-18T16:22:19.743Z,12.57
2023-04-18T16:24:48.186Z,13.50
2023-04-18T16:27:16.704Z,14.18
2023-04-18T16:29:46.105Z,13.07
2023-04-18T16:32:14.589Z,13.65
2023-04-18T16:34:43.060Z,12.00
2023-04-18T16:37:11.476Z,13.10
2023-04-18T16:39:41.442Z,12.98
2023-04-18T16:44:39.444Z,13.35
2023-04-18T16:49:47.736Z,14.73
2023-04-18T16:52:19.321Z,13.52
2023-04-18T16:54:47.853Z,13.27
2023-04-18T16:57:17.675Z,13.50
2023-04-18T16:59:47.354Z,13.73
2023-04-18T17:02:16.370Z,13.63
2023-04-18T17:04:46.348Z,14.75
2023-04-18T17:07:14.817Z,14.63
2023-04-18T17:09:43.311Z,13.45
2023-04-18T17:12:11.816Z,13.18
2023-04-18T17:14:40.334Z,12.65
2023-04-18T17:17:08.784Z,13.45
2023-04-18T17:19:37.529Z,13.50
2023-04-18T17:22:07.402Z,14.18
2023-04-18T17:24:35.851Z,14.40
2023-04-18T17:27:04.468Z,13.15
2023-04-18T17:29:32.942Z,15.43
2023-04-18T17:32:01.426Z,14.43
2023-04-18T17:34:29.910Z,14.00
2023-04-18T17:36:58.335Z,14.25
2023-04-18T17:39:28.326Z,14.32
2023-04-18T17:41:57.758Z,14.10
2023-04-18T17:44:26.275Z,13.48
2023-04-18T17:46:54.710Z,12.68
2023-04-18T17:49:23.254Z,14.35
2023-04-18T17:51:52.070Z,15.07
2023-04-18T17:54:20.529Z,15.05
2023-04-18T17:56:50.401Z,15.15
2023-04-18T17:59:18.920Z,15.05
2023-04-18T18:01:47.575Z,14.98
2023-04-18T18:04:16.366Z,14.43
2023-04-18T18:06:54.693Z,15.70
2023-04-18T18:09:23.153Z,13.90
2023-04-18T18:11:54.620Z,14.50
2023-04-18T18:14:24.402Z,14.18
2023-04-18T18:16:52.937Z,14.40
2023-04-18T18:19:21.580Z,15.20
2023-04-18T18:21:50.693Z,15.27
2023-04-18T18:24:19.720Z,15.23
2023-04-18T18:26:50.991Z,15.40
2023-04-18T18:31:40.609Z,15.55
2023-04-18T18:34:09.249Z,16.20
2023-04-18T18:36:37.727Z,16.40
2023-04-18T18:39:06.324Z,15.63
2023-04-18T18:41:34.780Z,14.38
2023-04-18T18:44:03.362Z,16.75
2023-04-18T18:46:31.932Z,14.73
2023-04-18T18:49:02.036Z,14.43
2023-04-18T18:51:31.058Z,14.07
2023-04-18T18:53:59.604Z,15.05
2023-04-18T18:56:28.112Z,16.35
2023-04-18T18:58:56.722Z,14.73
2023-04-18T19:01:25.267Z,15.27
2023-04-18T19:03:54.116Z,15.27
2023-04-18T19:06:24.099Z,17.83
2023-04-18T19:08:52.570Z,17.42
2023-04-18T19:11:21.063Z,15.93
2023-04-18T19:13:49.605Z,16.33
2023-04-18T19:16:18.120Z,15.25
2023-04-18T19:18:49.121Z,19.70
2023-04-18T19:21:17.693Z,14.80
2023-04-18T19:23:47.789Z,15.40
2023-04-18T19:26:16.393Z,15.13
2023-04-18T19:28:44.850Z,15.30
2023-04-18T19:31:13.355Z,16.17
2023-04-18T19:33:41.843Z,16.15
2023-04-18T19:36:10.451Z,14.82
2023-04-18T19:38:38.920Z,15.15
2023-04-18T19:41:08.885Z,14.50
2023-04-18T19:43:38.392Z,14.95
2023-04-18T19:46:06.861Z,15.27
2023-04-18T19:48:35.454Z,15.57
2023-04-18T19:51:04.812Z,16.13
2023-04-18T19:53:33.343Z,15.20
2023-04-18T19:56:01.821Z,14.73
2023-04-18T19:58:39.829Z,15.02
2023-04-18T20:01:09.993Z,15.15
2023-04-18T20:03:39.133Z,16.80
2023-04-18T20:06:08.152Z,14.70
2023-04-18T20:08:37.616Z,15.10
2023-04-18T20:11:08.394Z,15.30
2023-04-18T20:13:38.356Z,17.20
2023-04-18T20:16:07.632Z,14.75
2023-04-18T20:18:37.781Z,19.23
2023-04-18T20:21:08.138Z,16.45
2023-04-18T20:23:36.755Z,15.15
2023-04-18T20:26:05.511Z,15.25
2023-04-18T20:28:34.245Z,14.15
2023-04-18T20:31:04.510Z,15.02
2023-04-18T20:33:33.150Z,15.43
2023-04-18T20:36:01.824Z,14.70
2023-04-18T20:38:30.318Z,14.32
2023-04-18T20:41:00.927Z,15.27
2023-04-18T20:43:29.585Z,14.40
2023-04-18T20:45:58.840Z,14.93
2023-04-18T20:48:28.841Z,13.63
2023-04-18T20:50:57.407Z,14.52
2023-04-18T20:53:27.184Z,15.98
2023-04-18T20:55:55.848Z,14.98
2023-04-18T20:58:24.554Z,14.65
2023-04-18T21:00:53.915Z,15.05
2023-04-18T21:03:22.652Z,14.48
2023-04-18T21:05:52.626Z,15.60
2023-04-18T21:08:21.210Z,14.60
2023-04-18T21:10:49.685Z,15.25
2023-04-18T21:13:18.169Z,13.70
2023-04-18T21:15:46.706Z,14.57
2023-04-18T21:18:15.286Z,14.15
2023-04-18T21:20:43.971Z,15.25
2023-04-18T21:23:13.884Z,15.85
2023-04-18T21:25:42.372Z,15.70
2023-04-18T21:28:10.850Z,16.60
2023-04-18T21:30:39.498Z,15.68
2023-04-18T21:33:07.963Z,15.70
2023-04-18T21:35:36.383Z,16.02
2023-04-18T21:38:04.864Z,14.25
2023-04-18T21:40:34.708Z,15.35
2023-04-18T21:43:03.128Z,15.68
2023-04-18T21:45:31.756Z,15.73
2023-04-18T21:48:00.424Z,14.60
2023-04-18T21:50:28.916Z,15.85
2023-04-18T21:52:57.646Z,18.00
2023-04-18T21:55:26.099Z,15.35
2023-04-18T21:57:55.993Z,14.90
2023-04-18T22:00:24.440Z,13.98
2023-04-18T22:02:52.955Z,14.77
2023-04-18T22:05:21.590Z,14.52
2023-04-18T22:07:57.615Z,16.17
2023-04-18T22:10:27.026Z,14.75
2023-04-18T22:12:56.827Z,15.98
2023-04-18T22:15:27.187Z,15.38
2023-04-18T22:17:56.057Z,15.18
2023-04-18T22:20:25.557Z,15.52
2023-04-18T22:22:54.148Z,13.52
2023-04-18T22:25:22.600Z,14.30
2023-04-18T22:27:51.038Z,14.20
2023-04-18T22:30:20.982Z,13.77
2023-04-18T22:32:49.647Z,13.43
2023-04-18T22:35:18.325Z,16.05
2023-04-18T22:37:46.740Z,13.85
2023-04-18T22:40:16.511Z,14.18
2023-04-18T22:42:44.995Z,14.40
2023-04-18T22:45:13.588Z,14.48
2023-04-18T22:47:43.472Z,13.60
2023-04-18T22:50:12.194Z,14.32
2023-04-18T22:52:40.706Z,16.67
2023-04-18T22:55:09.568Z,16.13
2023-04-18T22:57:37.972Z,13.95
2023-04-18T23:00:07.500Z,14.73
2023-04-18T23:02:36.016Z,15.30
2023-04-18T23:05:07.324Z,18.38
2023-04-18T23:07:35.745Z,16.67
2023-04-18T23:10:05.976Z,17.60
2023-04-18T23:12:34.404Z,16.20
2023-04-18T23:15:02.895Z,14.45
2023-04-18T23:17:31.361Z,16.92
2023-04-18T23:19:59.827Z,17.00
2023-04-18T23:22:30.342Z,14.55
2023-04-18T23:24:58.780Z,15.55
2023-04-18T23:27:27.262Z,15.23
2023-04-18T23:29:55.697Z,14.95
2023-04-18T23:32:24.271Z,17.35
2023-04-18T23:34:52.732Z,15.93
2023-04-18T23:37:21.558Z,16.35
2023-04-18T23:39:51.668Z,15.68
2023-04-18T23:42:20.101Z,15.82
2023-04-18T23:44:48.529Z,16.33
2023-04-18T23:47:17.087Z,16.65
2023-04-18T23:49:45.729Z,18.60
2023-04-18T23:52:14.509Z,17.42
2023-04-18T23:57:19.629Z,18.20
2023-04-18T23:59:48.105Z,20.30
